sensor_id;sensor_type;location;lat;lon;timestamp;pressure;altitude;pressure_sealevel;temperature;humidity
77545;BME280;66672;50.328;7.610;2023-01-10T00:01:39;99589.56;;;5.06;82.05
77545;BME280;66672;50.328;7.610;2023-01-10T00:04:05;99595.41;;;4.99;82.52
77545;BME280;66672;50.328;7.610;2023-01-10T00:06:32;99598.25;;;5.08;80.82
77545;BME280;66672;50.328;7.610;2023-01-10T00:08:58;99620.16;;;4.85;82.23
77545;BME280;66672;50.328;7.610;2023-01-10T00:11:25;99613.81;;;4.88;80.73
77545;BME280;66672;50.328;7.610;2023-01-10T00:14:09;99627.38;;;4.96;80.06
77545;BME280;66672;50.328;7.610;2023-01-10T00:16:36;99635.97;;;4.87;80.33
77545;BME280;66672;50.328;7.610;2023-01-10T00:19:05;99645.91;;;4.96;79.73
77545;BME280;66672;50.328;7.610;2023-01-10T00:21:33;99638.28;;;5.04;79.52
77545;BME280;66672;50.328;7.610;2023-01-10T00:24:00;99645.59;;;4.88;79.68
77545;BME280;66672;50.328;7.610;2023-01-10T00:26:38;99645.50;;;5.02;80.72
77545;BME280;66672;50.328;7.610;2023-01-10T00:29:06;99648.25;;;5.00;80.12
77545;BME280;66672;50.328;7.610;2023-01-10T00:31:34;99653.53;;;5.00;78.24
77545;BME280;66672;50.328;7.610;2023-01-10T00:34:00;99660.66;;;5.13;79.03
77545;BME280;66672;50.328;7.610;2023-01-10T00:36:27;99675.22;;;4.80;79.09
77545;BME280;66672;50.328;7.610;2023-01-10T00:38:55;99680.88;;;5.01;80.76
77545;BME280;66672;50.328;7.610;2023-01-10T00:41:21;99675.88;;;4.84;79.53
77545;BME280;66672;50.328;7.610;2023-01-10T00:44:05;99698.03;;;4.95;77.40
77545;BME280;66672;50.328;7.610;2023-01-10T00:46:33;99698.13;;;4.94;78.15
77545;BME280;66672;50.328;7.610;2023-01-10T00:48:59;99712.84;;;4.98;78.29
77545;BME280;66672;50.328;7.610;2023-01-10T00:51:33;99715.94;;;5.04;77.73
77545;BME280;66672;50.328;7.610;2023-01-10T00:53:59;99723.16;;;5.15;76.61
77545;BME280;66672;50.328;7.610;2023-01-10T00:56:25;99728.94;;;4.95;77.27
77545;BME280;66672;50.328;7.610;2023-01-10T00:58:52;99735.34;;;5.05;78.19
77545;BME280;66672;50.328;7.610;2023-01-10T01:01:17;99738.41;;;5.12;78.14
77545;BME280;66672;50.328;7.610;2023-01-10T01:03:45;99749.75;;;5.14;77.52
77545;BME280;66672;50.328;7.610;2023-01-10T01:06:11;99760.59;;;5.23;77.84
77545;BME280;66672;50.328;7.610;2023-01-10T01:08:37;99763.06;;;4.99;78.06
77545;BME280;66672;50.328;7.610;2023-01-10T01:11:04;99759.25;;;5.03;77.16
77545;BME280;66672;50.328;7.610;2023-01-10T01:13:31;99766.75;;;4.97;77.48
77545;BME280;66672;50.328;7.610;2023-01-10T01:16:01;99774.84;;;5.08;77.77
77545;BME280;66672;50.328;7.610;2023-01-10T01:18:28;99778.44;;;5.07;77.15
77545;BME280;66672;50.328;7.610;2023-01-10T01:20:59;99781.94;;;5.07;75.63
77545;BME280;66672;50.328;7.610;2023-01-10T01:23:29;99785.31;;;5.09;76.00
77545;BME280;66672;50.328;7.610;2023-01-10T01:25:56;99785.44;;;5.08;76.91
77545;BME280;66672;50.328;7.610;2023-01-10T01:28:25;99787.22;;;5.07;77.37
77545;BME280;66672;50.328;7.610;2023-01-10T01:30:52;99794.47;;;5.18;76.39
77545;BME280;66672;50.328;7.610;2023-01-10T01:33:19;99801.22;;;5.09;75.82
77545;BME280;66672;50.328;7.610;2023-01-10T01:35:47;99807.44;;;5.35;76.41
77545;BME280;66672;50.328;7.610;2023-01-10T01:38:14;99823.09;;;5.26;75.28
77545;BME280;66672;50.328;7.610;2023-01-10T01:40:41;99818.72;;;5.12;75.59
77545;BME280;66672;50.328;7.610;2023-01-10T01:43:29;99820.53;;;5.12;75.38
77545;BME280;66672;50.328;7.610;2023-01-10T01:46:02;99820.31;;;5.15;75.09
77545;BME280;66672;50.328;7.610;2023-01-10T01:48:34;99833.78;;;5.24;75.44
77545;BME280;66672;50.328;7.610;2023-01-10T01:51:17;99838.97;;;5.26;75.41
77545;BME280;66672;50.328;7.610;2023-01-10T01:53:56;99836.03;;;5.30;75.49
77545;BME280;66672;50.328;7.610;2023-01-10T01:56:58;99852.59;;;5.34;75.06
77545;BME280;66672;50.328;7.610;2023-01-10T01:59:46;99855.69;;;5.41;77.29
77545;BME280;66672;50.328;7.610;2023-01-10T02:02:42;99852.22;;;5.26;75.77
77545;BME280;66672;50.328;7.610;2023-01-10T02:05:14;99868.09;;;5.40;74.44
77545;BME280;66672;50.328;7.610;2023-01-10T02:07:48;99860.84;;;5.29;75.46
77545;BME280;66672;50.328;7.610;2023-01-10T02:10:21;99860.97;;;5.41;74.49
77545;BME280;66672;50.328;7.610;2023-01-10T02:12:55;99864.91;;;5.48;73.72
77545;BME280;66672;50.328;7.610;2023-01-10T02:15:24;99869.66;;;5.43;75.19
77545;BME280;66672;50.328;7.610;2023-01-10T02:17:51;99873.56;;;5.37;77.17
77545;BME280;66672;50.328;7.610;2023-01-10T02:20:20;99877.38;;;5.06;79.60
77545;BME280;66672;50.328;7.610;2023-01-10T02:34:50;99898.22;;;5.52;74.51
77545;BME280;66672;50.328;7.610;2023-01-10T02:40:33;99890.34;;;5.50;76.24
77545;BME280;66672;50.328;7.610;2023-01-10T02:43:28;99897.13;;;5.42;75.96
77545;BME280;66672;50.328;7.610;2023-01-10T02:45:58;99902.13;;;5.46;74.20
77545;BME280;66672;50.328;7.610;2023-01-10T02:48:28;99904.44;;;5.51;75.49
77545;BME280;66672;50.328;7.610;2023-01-10T02:51:19;99911.66;;;5.49;74.78
77545;BME280;66672;50.328;7.610;2023-01-10T02:57:07;99907.44;;;5.46;75.29
77545;BME280;66672;50.328;7.610;2023-01-10T03:11:10;99925.75;;;5.49;74.81
77545;BME280;66672;50.328;7.610;2023-01-10T03:13:47;99936.06;;;5.54;73.31
77545;BME280;66672;50.328;7.610;2023-01-10T03:16:23;99938.06;;;5.50;73.84
77545;BME280;66672;50.328;7.610;2023-01-10T03:19:07;99928.78;;;5.57;74.65
77545;BME280;66672;50.328;7.610;2023-01-10T03:21:35;99928.28;;;5.51;73.80
77545;BME280;66672;50.328;7.610;2023-01-10T03:24:11;99933.75;;;5.62;73.86
77545;BME280;66672;50.328;7.610;2023-01-10T03:27:02;99937.41;;;5.47;73.64
77545;BME280;66672;50.328;7.610;2023-01-10T03:29:44;99946.91;;;5.37;75.43
77545;BME280;66672;50.328;7.610;2023-01-10T03:32:13;99944.19;;;5.51;73.42
77545;BME280;66672;50.328;7.610;2023-01-10T03:34:41;99951.81;;;5.43;74.41
77545;BME280;66672;50.328;7.610;2023-01-10T03:46:06;99972.50;;;5.50;74.73
77545;BME280;66672;50.328;7.610;2023-01-10T03:48:38;99980.84;;;5.44;74.94
77545;BME280;66672;50.328;7.610;2023-01-10T03:51:07;99984.84;;;5.37;74.97
77545;BME280;66672;50.328;7.610;2023-01-10T03:53:37;99990.97;;;5.52;74.01
77545;BME280;66672;50.328;7.610;2023-01-10T03:56:05;99994.94;;;5.45;75.05
77545;BME280;66672;50.328;7.610;2023-01-10T03:58:32;99999.38;;;5.58;73.18
77545;BME280;66672;50.328;7.610;2023-01-10T04:00:59;99996.41;;;5.36;74.62
77545;BME280;66672;50.328;7.610;2023-01-10T04:03:25;99995.75;;;5.32;74.70
77545;BME280;66672;50.328;7.610;2023-01-10T04:05:50;99992.81;;;5.37;74.14
77545;BME280;66672;50.328;7.610;2023-01-10T04:08:18;99998.09;;;5.37;74.70
77545;BME280;66672;50.328;7.610;2023-01-10T04:10:47;100008.34;;;5.70;73.42
77545;BME280;66672;50.328;7.610;2023-01-10T04:13:13;100007.13;;;5.34;74.12
77545;BME280;66672;50.328;7.610;2023-01-10T04:15:38;100026.81;;;5.16;74.93
77545;BME280;66672;50.328;7.610;2023-01-10T04:18:05;100034.94;;;5.13;75.65
77545;BME280;66672;50.328;7.610;2023-01-10T04:20:30;100031.94;;;5.05;76.08
77545;BME280;66672;50.328;7.610;2023-01-10T04:22:57;100037.88;;;5.08;75.61
77545;BME280;66672;50.328;7.610;2023-01-10T04:25:24;100035.88;;;4.98;76.15
77545;BME280;66672;50.328;7.610;2023-01-10T04:27:52;100043.09;;;5.24;74.20
77545;BME280;66672;50.328;7.610;2023-01-10T04:30:18;100045.09;;;5.06;75.09
77545;BME280;66672;50.328;7.610;2023-01-10T04:32:44;100054.56;;;5.11;75.22
77545;BME280;66672;50.328;7.610;2023-01-10T04:35:12;100052.47;;;5.01;75.27
77545;BME280;66672;50.328;7.610;2023-01-10T04:37:38;100049.50;;;5.34;73.88
77545;BME280;66672;50.328;7.610;2023-01-10T04:40:06;100059.56;;;5.01;75.17
77545;BME280;66672;50.328;7.610;2023-01-10T04:42:36;100074.50;;;5.02;74.05
77545;BME280;66672;50.328;7.610;2023-01-10T04:45:03;100064.75;;;5.17;74.20
77545;BME280;66672;50.328;7.610;2023-01-10T04:47:29;100079.78;;;5.02;74.14
77545;BME280;66672;50.328;7.610;2023-01-10T04:49:57;100081.78;;;4.98;75.55
77545;BME280;66672;50.328;7.610;2023-01-10T04:52:24;100082.81;;;4.96;74.70
77545;BME280;66672;50.328;7.610;2023-01-10T04:54:52;100080.91;;;4.98;75.71
77545;BME280;66672;50.328;7.610;2023-01-10T04:57:19;100082.16;;;5.06;74.88
77545;BME280;66672;50.328;7.610;2023-01-10T04:59:45;100085.09;;;5.16;74.18
77545;BME280;66672;50.328;7.610;2023-01-10T05:02:12;100084.44;;;4.98;74.86
77545;BME280;66672;50.328;7.610;2023-01-10T05:04:39;100078.25;;;4.98;74.43
77545;BME280;66672;50.328;7.610;2023-01-10T05:07:06;100085.84;;;5.04;75.34
77545;BME280;66672;50.328;7.610;2023-01-10T05:09:36;100102.97;;;5.13;74.11
77545;BME280;66672;50.328;7.610;2023-01-10T05:12:02;100098.91;;;5.07;74.16
77545;BME280;66672;50.328;7.610;2023-01-10T05:14:28;100094.81;;;4.87;74.93
77545;BME280;66672;50.328;7.610;2023-01-10T05:16:53;100097.91;;;4.79;75.63
77545;BME280;66672;50.328;7.610;2023-01-10T05:19:23;100100.88;;;4.75;75.34
77545;BME280;66672;50.328;7.610;2023-01-10T05:21:48;100109.06;;;4.70;74.93
77545;BME280;66672;50.328;7.610;2023-01-10T05:24:19;100113.53;;;4.84;74.55
77545;BME280;66672;50.328;7.610;2023-01-10T05:26:46;100117.97;;;4.69;75.27
77545;BME280;66672;50.328;7.610;2023-01-10T05:29:12;100118.34;;;4.77;74.68
77545;BME280;66672;50.328;7.610;2023-01-10T05:31:40;100113.31;;;4.73;74.66
77545;BME280;66672;50.328;7.610;2023-01-10T05:34:10;100134.75;;;4.68;74.77
77545;BME280;66672;50.328;7.610;2023-01-10T05:36:37;100144.47;;;4.53;76.10
77545;BME280;66672;50.328;7.610;2023-01-10T05:39:04;100142.94;;;4.49;76.42
77545;BME280;66672;50.328;7.610;2023-01-10T05:41:34;100139.22;;;4.68;75.21
77545;BME280;66672;50.328;7.610;2023-01-10T05:44:00;100143.03;;;4.48;75.90
77545;BME280;66672;50.328;7.610;2023-01-10T05:46:25;100152.09;;;4.44;75.84
77545;BME280;66672;50.328;7.610;2023-01-10T05:48:52;100147.59;;;4.60;75.40
77545;BME280;66672;50.328;7.610;2023-01-10T05:51:19;100155.72;;;4.57;75.58
77545;BME280;66672;50.328;7.610;2023-01-10T05:53:45;100150.28;;;4.44;76.35
77545;BME280;66672;50.328;7.610;2023-01-10T05:56:12;100156.78;;;4.39;76.54
77545;BME280;66672;50.328;7.610;2023-01-10T05:58:39;100158.31;;;4.43;76.73
77545;BME280;66672;50.328;7.610;2023-01-10T06:01:07;100152.31;;;4.55;77.17
77545;BME280;66672;50.328;7.610;2023-01-10T06:03:35;100160.81;;;4.30;77.37
77545;BME280;66672;50.328;7.610;2023-01-10T06:06:02;100163.06;;;4.06;78.28
77545;BME280;66672;50.328;7.610;2023-01-10T06:08:30;100171.84;;;4.07;78.43
77545;BME280;66672;50.328;7.610;2023-01-10T06:10:55;100176.59;;;4.47;77.05
77545;BME280;66672;50.328;7.610;2023-01-10T06:13:22;100189.47;;;4.22;77.49
77545;BME280;66672;50.328;7.610;2023-01-10T06:15:49;100191.03;;;4.10;78.25
77545;BME280;66672;50.328;7.610;2023-01-10T06:18:16;100190.09;;;4.11;78.98
77545;BME280;66672;50.328;7.610;2023-01-10T06:20:42;100180.13;;;4.16;77.59
77545;BME280;66672;50.328;7.610;2023-01-10T06:23:08;100179.09;;;3.87;78.90
77545;BME280;66672;50.328;7.610;2023-01-10T06:25:34;100156.66;;;3.94;78.05
77545;BME280;66672;50.328;7.610;2023-01-10T06:28:09;100151.53;;;4.23;76.19
77545;BME280;66672;50.328;7.610;2023-01-10T06:30:52;100165.69;;;4.22;76.49
77545;BME280;66672;50.328;7.610;2023-01-10T06:33:19;100178.13;;;4.04;78.10
77545;BME280;66672;50.328;7.610;2023-01-10T06:35:44;100194.00;;;4.04;77.83
77545;BME280;66672;50.328;7.610;2023-01-10T06:38:15;100201.44;;;3.97;77.49
77545;BME280;66672;50.328;7.610;2023-01-10T06:40:42;100210.72;;;4.36;76.91
77545;BME280;66672;50.328;7.610;2023-01-10T06:43:11;100208.94;;;3.89;78.25
77545;BME280;66672;50.328;7.610;2023-01-10T06:45:36;100226.84;;;3.84;78.78
77545;BME280;66672;50.328;7.610;2023-01-10T06:48:03;100230.53;;;4.13;76.60
77545;BME280;66672;50.328;7.610;2023-01-10T06:50:30;100236.31;;;4.04;78.19
77545;BME280;66672;50.328;7.610;2023-01-10T06:53:14;100237.88;;;4.24;76.87
77545;BME280;66672;50.328;7.610;2023-01-10T06:55:42;100230.97;;;4.06;77.42
77545;BME280;66672;50.328;7.610;2023-01-10T06:58:12;100225.81;;;4.03;77.81
77545;BME280;66672;50.328;7.610;2023-01-10T07:00:44;100235.56;;;4.18;76.74
77545;BME280;66672;50.328;7.610;2023-01-10T07:03:11;100239.47;;;3.95;77.89
77545;BME280;66672;50.328;7.610;2023-01-10T07:05:38;100252.50;;;3.98;78.07
77545;BME280;66672;50.328;7.610;2023-01-10T07:08:06;100254.75;;;4.06;77.63
77545;BME280;66672;50.328;7.610;2023-01-10T07:10:32;100257.13;;;4.10;77.74
77545;BME280;66672;50.328;7.610;2023-01-10T07:12:58;100248.63;;;4.21;76.58
77545;BME280;66672;50.328;7.610;2023-01-10T07:15:26;100246.56;;;4.26;76.50
77545;BME280;66672;50.328;7.610;2023-01-10T07:17:56;100248.88;;;4.32;76.74
77545;BME280;66672;50.328;7.610;2023-01-10T07:20:22;100265.19;;;4.40;75.35
77545;BME280;66672;50.328;7.610;2023-01-10T07:23:07;100258.19;;;4.23;76.16
77545;BME280;66672;50.328;7.610;2023-01-10T07:25:34;100259.75;;;4.73;74.80
77545;BME280;66672;50.328;7.610;2023-01-10T07:28:01;100273.53;;;4.48;74.95
77545;BME280;66672;50.328;7.610;2023-01-10T07:30:26;100272.78;;;4.46;75.35
77545;BME280;66672;50.328;7.610;2023-01-10T07:32:55;100282.78;;;4.41;75.28
77545;BME280;66672;50.328;7.610;2023-01-10T07:35:21;100295.72;;;4.30;76.69
77545;BME280;66672;50.328;7.610;2023-01-10T07:37:47;100291.81;;;4.53;75.06
77545;BME280;66672;50.328;7.610;2023-01-10T07:40:13;100292.56;;;4.55;75.07
77545;BME280;66672;50.328;7.610;2023-01-10T07:42:38;100308.28;;;4.58;75.07
77545;BME280;66672;50.328;7.610;2023-01-10T07:45:05;100324.69;;;4.65;74.88
77545;BME280;66672;50.328;7.610;2023-01-10T07:47:34;100307.00;;;4.65;74.66
77545;BME280;66672;50.328;7.610;2023-01-10T07:49:59;100315.28;;;4.59;75.27
77545;BME280;66672;50.328;7.610;2023-01-10T07:52:25;100310.59;;;4.48;76.75
77545;BME280;66672;50.328;7.610;2023-01-10T07:54:51;100313.38;;;4.45;76.12
77545;BME280;66672;50.328;7.610;2023-01-10T07:57:19;100323.72;;;4.50;75.88
77545;BME280;66672;50.328;7.610;2023-01-10T07:59:45;100325.19;;;4.55;75.44
77545;BME280;66672;50.328;7.610;2023-01-10T08:02:10;100328.50;;;4.43;75.66
77545;BME280;66672;50.328;7.610;2023-01-10T08:04:37;100328.41;;;4.45;75.56
77545;BME280;66672;50.328;7.610;2023-01-10T08:07:03;100327.16;;;4.52;75.30
77545;BME280;66672;50.328;7.610;2023-01-10T08:09:30;100324.00;;;4.61;74.86
77545;BME280;66672;50.328;7.610;2023-01-10T08:11:58;100337.41;;;4.58;75.26
77545;BME280;66672;50.328;7.610;2023-01-10T08:14:24;100340.13;;;4.57;74.87
77545;BME280;66672;50.328;7.610;2023-01-10T08:16:52;100333.91;;;4.58;74.16
77545;BME280;66672;50.328;7.610;2023-01-10T08:19:18;100342.25;;;4.66;74.12
77545;BME280;66672;50.328;7.610;2023-01-10T08:21:47;100339.53;;;4.67;74.34
77545;BME280;66672;50.328;7.610;2023-01-10T08:24:13;100345.00;;;4.64;74.18
77545;BME280;66672;50.328;7.610;2023-01-10T08:26:39;100345.94;;;4.63;74.10
77545;BME280;66672;50.328;7.610;2023-01-10T08:29:07;100346.97;;;4.76;73.74
77545;BME280;66672;50.328;7.610;2023-01-10T08:31:34;100332.38;;;4.69;74.33
77545;BME280;66672;50.328;7.610;2023-01-10T08:33:59;100333.03;;;4.73;74.35
77545;BME280;66672;50.328;7.610;2023-01-10T08:36:25;100341.03;;;5.03;71.71
77545;BME280;66672;50.328;7.610;2023-01-10T08:38:54;100341.47;;;4.95;72.37
77545;BME280;66672;50.328;7.610;2023-01-10T08:41:21;100348.03;;;5.04;72.52
77545;BME280;66672;50.328;7.610;2023-01-10T08:43:51;100345.22;;;5.07;71.47
77545;BME280;66672;50.328;7.610;2023-01-10T08:46:17;100341.38;;;4.97;72.22
77545;BME280;66672;50.328;7.610;2023-01-10T08:48:45;100340.09;;;5.04;71.88
77545;BME280;66672;50.328;7.610;2023-01-10T08:51:17;100359.75;;;4.84;73.66
77545;BME280;66672;50.328;7.610;2023-01-10T08:53:45;100360.75;;;5.13;71.75
77545;BME280;66672;50.328;7.610;2023-01-10T08:56:10;100357.44;;;5.09;71.74
77545;BME280;66672;50.328;7.610;2023-01-10T08:58:40;100360.19;;;4.92;73.06
77545;BME280;66672;50.328;7.610;2023-01-10T09:01:07;100367.09;;;5.11;72.38
77545;BME280;66672;50.328;7.610;2023-01-10T09:03:39;100374.75;;;5.15;72.01
77545;BME280;66672;50.328;7.610;2023-01-10T09:06:06;100378.47;;;5.13;72.77
77545;BME280;66672;50.328;7.610;2023-01-10T09:08:37;100372.56;;;5.07;72.77
77545;BME280;66672;50.328;7.610;2023-01-10T09:11:13;100367.84;;;5.28;71.81
77545;BME280;66672;50.328;7.610;2023-01-10T09:13:40;100374.69;;;5.17;71.56
77545;BME280;66672;50.328;7.610;2023-01-10T09:16:08;100384.59;;;5.13;72.29
77545;BME280;66672;50.328;7.610;2023-01-10T09:18:37;100379.44;;;5.26;71.09
77545;BME280;66672;50.328;7.610;2023-01-10T09:21:04;100375.84;;;5.27;71.56
77545;BME280;66672;50.328;7.610;2023-01-10T09:23:31;100383.44;;;5.33;71.60
77545;BME280;66672;50.328;7.610;2023-01-10T09:25:59;100393.63;;;5.41;70.81
77545;BME280;66672;50.328;7.610;2023-01-10T09:28:26;100385.00;;;5.37;70.64
77545;BME280;66672;50.328;7.610;2023-01-10T09:30:53;100384.13;;;5.37;70.87
77545;BME280;66672;50.328;7.610;2023-01-10T09:33:19;100384.53;;;5.45;69.95
77545;BME280;66672;50.328;7.610;2023-01-10T09:35:45;100395.72;;;5.50;70.44
77545;BME280;66672;50.328;7.610;2023-01-10T09:38:13;100386.94;;;5.49;70.51
77545;BME280;66672;50.328;7.610;2023-01-10T09:40:51;100387.41;;;5.56;69.97
77545;BME280;66672;50.328;7.610;2023-01-10T09:49:53;100396.66;;;5.65;69.40
77545;BME280;66672;50.328;7.610;2023-01-10T09:52:29;100394.66;;;5.68;68.77
77545;BME280;66672;50.328;7.610;2023-01-10T09:55:07;100412.78;;;5.76;68.45
77545;BME280;66672;50.328;7.610;2023-01-10T09:57:41;100412.28;;;5.69;67.58
77545;BME280;66672;50.328;7.610;2023-01-10T10:00:08;100425.00;;;5.78;67.46
77545;BME280;66672;50.328;7.610;2023-01-10T10:02:42;100419.31;;;5.84;68.00
77545;BME280;66672;50.328;7.610;2023-01-10T10:05:15;100422.22;;;5.80;67.14
77545;BME280;66672;50.328;7.610;2023-01-10T10:07:52;100421.03;;;5.85;67.23
77545;BME280;66672;50.328;7.610;2023-01-10T10:10:24;100431.56;;;5.87;67.09
77545;BME280;66672;50.328;7.610;2023-01-10T10:18:44;100427.84;;;6.05;65.92
77545;BME280;66672;50.328;7.610;2023-01-10T10:27:23;100428.13;;;6.15;65.59
77545;BME280;66672;50.328;7.610;2023-01-10T10:36:01;100406.72;;;6.32;63.17
77545;BME280;66672;50.328;7.610;2023-01-10T10:38:41;100417.34;;;6.47;64.00
77545;BME280;66672;50.328;7.610;2023-01-10T10:41:31;100408.81;;;6.41;62.25
77545;BME280;66672;50.328;7.610;2023-01-10T10:44:04;100422.94;;;6.42;61.99
77545;BME280;66672;50.328;7.610;2023-01-10T10:46:31;100420.94;;;6.60;63.54
77545;BME280;66672;50.328;7.610;2023-01-10T10:48:59;100421.97;;;6.72;63.30
77545;BME280;66672;50.328;7.610;2023-01-10T10:54:03;100424.00;;;6.54;60.84
77545;BME280;66672;50.328;7.610;2023-01-10T10:56:31;100411.75;;;6.65;61.01
77545;BME280;66672;50.328;7.610;2023-01-10T10:58:59;100425.69;;;6.83;60.88
77545;BME280;66672;50.328;7.610;2023-01-10T11:01:26;100424.63;;;6.86;60.63
77545;BME280;66672;50.328;7.610;2023-01-10T11:04:04;100429.31;;;7.09;60.55
77545;BME280;66672;50.328;7.610;2023-01-10T11:06:32;100438.91;;;6.98;60.58
77545;BME280;66672;50.328;7.610;2023-01-10T11:09:06;100436.31;;;6.69;61.48
77545;BME280;66672;50.328;7.610;2023-01-10T11:11:51;100432.22;;;6.92;61.54
77545;BME280;66672;50.328;7.610;2023-01-10T11:14:48;100430.53;;;6.77;61.64
77545;BME280;66672;50.328;7.610;2023-01-10T11:17:34;100436.50;;;6.80;61.41
77545;BME280;66672;50.328;7.610;2023-01-10T11:20:15;100427.50;;;6.68;62.30
77545;BME280;66672;50.328;7.610;2023-01-10T11:22:47;100422.72;;;6.88;61.74
77545;BME280;66672;50.328;7.610;2023-01-10T11:25:19;100410.41;;;6.87;62.40
77545;BME280;66672;50.328;7.610;2023-01-10T11:27:55;100406.50;;;6.78;62.89
77545;BME280;66672;50.328;7.610;2023-01-10T13:02:59;100354.69;;;7.00;64.86
77545;BME280;66672;50.328;7.610;2023-01-10T13:05:29;100361.56;;;6.75;65.35
77545;BME280;66672;50.328;7.610;2023-01-10T13:08:05;100353.31;;;6.65;66.21
77545;BME280;66672;50.328;7.610;2023-01-10T13:10:34;100359.53;;;6.93;64.85
77545;BME280;66672;50.328;7.610;2023-01-10T13:15:43;100366.50;;;6.81;65.18
77545;BME280;66672;50.328;7.610;2023-01-10T13:18:23;100362.25;;;6.64;65.51
77545;BME280;66672;50.328;7.610;2023-01-10T13:21:11;100357.19;;;6.74;65.40
77545;BME280;66672;50.328;7.610;2023-01-10T13:23:50;100354.69;;;6.85;65.39
77545;BME280;66672;50.328;7.610;2023-01-10T13:26:17;100358.38;;;6.97;64.66
77545;BME280;66672;50.328;7.610;2023-01-10T13:28:56;100354.53;;;6.74;65.27
77545;BME280;66672;50.328;7.610;2023-01-10T13:31:32;100347.03;;;6.81;65.74
77545;BME280;66672;50.328;7.610;2023-01-10T13:34:01;100338.31;;;6.79;65.38
77545;BME280;66672;50.328;7.610;2023-01-10T13:36:36;100337.47;;;6.78;65.53
77545;BME280;66672;50.328;7.610;2023-01-10T13:39:17;100337.56;;;6.77;64.86
77545;BME280;66672;50.328;7.610;2023-01-10T14:00:52;100308.00;;;6.68;65.99
77545;BME280;66672;50.328;7.610;2023-01-10T14:06:20;100305.63;;;6.64;65.50
77545;BME280;66672;50.328;7.610;2023-01-10T14:14:20;100294.53;;;6.99;64.86
77545;BME280;66672;50.328;7.610;2023-01-10T14:19:38;100294.44;;;6.86;64.60
77545;BME280;66672;50.328;7.610;2023-01-10T14:22:32;100291.78;;;6.86;64.17
77545;BME280;66672;50.328;7.610;2023-01-10T14:25:00;100284.56;;;6.75;63.84
77545;BME280;66672;50.328;7.610;2023-01-10T14:27:48;100278.13;;;6.92;64.04
77545;BME280;66672;50.328;7.610;2023-01-10T14:30:24;100277.13;;;6.80;64.70
77545;BME280;66672;50.328;7.610;2023-01-10T14:32:54;100268.00;;;6.84;64.50
77545;BME280;66672;50.328;7.610;2023-01-10T14:35:23;100269.84;;;6.97;64.54
77545;BME280;66672;50.328;7.610;2023-01-10T14:37:56;100258.13;;;6.86;65.48
77545;BME280;66672;50.328;7.610;2023-01-10T14:40:50;100256.22;;;6.88;65.59
77545;BME280;66672;50.328;7.610;2023-01-10T14:43:19;100250.22;;;6.99;64.73
77545;BME280;66672;50.328;7.610;2023-01-10T14:48:46;100248.84;;;6.79;64.57
77545;BME280;66672;50.328;7.610;2023-01-10T14:51:34;100241.72;;;6.80;64.08
77545;BME280;66672;50.328;7.610;2023-01-10T14:54:11;100231.94;;;7.07;63.82
77545;BME280;66672;50.328;7.610;2023-01-10T14:56:40;100233.81;;;6.92;63.22
77545;BME280;66672;50.328;7.610;2023-01-10T14:59:38;100229.00;;;6.85;63.93
77545;BME280;66672;50.328;7.610;2023-01-10T15:02:17;100229.22;;;6.82;63.89
77545;BME280;66672;50.328;7.610;2023-01-10T15:04:55;100226.28;;;6.59;64.63
77545;BME280;66672;50.328;7.610;2023-01-10T15:07:39;100214.84;;;6.72;64.53
77545;BME280;66672;50.328;7.610;2023-01-10T15:10:27;100222.41;;;6.78;63.60
77545;BME280;66672;50.328;7.610;2023-01-10T15:13:01;100219.75;;;6.78;63.48
77545;BME280;66672;50.328;7.610;2023-01-10T15:15:33;100207.78;;;6.98;63.29
77545;BME280;66672;50.328;7.610;2023-01-10T15:18:01;100204.69;;;6.91;64.16
77545;BME280;66672;50.328;7.610;2023-01-10T15:20:33;100202.97;;;6.77;63.91
77545;BME280;66672;50.328;7.610;2023-01-10T15:23:03;100192.50;;;6.61;64.63
77545;BME280;66672;50.328;7.610;2023-01-10T15:25:35;100196.81;;;6.77;64.18
77545;BME280;66672;50.328;7.610;2023-01-10T15:28:15;100191.75;;;6.59;64.85
77545;BME280;66672;50.328;7.610;2023-01-10T15:30:42;100175.31;;;6.67;65.86
77545;BME280;66672;50.328;7.610;2023-01-10T15:33:29;100177.75;;;6.57;65.53
77545;BME280;66672;50.328;7.610;2023-01-10T15:36:18;100175.31;;;6.67;65.58
77545;BME280;66672;50.328;7.610;2023-01-10T15:38:47;100165.34;;;6.44;65.86
77545;BME280;66672;50.328;7.610;2023-01-10T15:41:19;100160.44;;;6.64;65.79
77545;BME280;66672;50.328;7.610;2023-01-10T15:43:46;100164.06;;;6.76;65.53
77545;BME280;66672;50.328;7.610;2023-01-10T15:46:23;100170.41;;;6.61;65.83
77545;BME280;66672;50.328;7.610;2023-01-10T15:48:55;100171.78;;;6.54;65.50
77545;BME280;66672;50.328;7.610;2023-01-10T15:51:47;100170.38;;;6.48;65.57
77545;BME280;66672;50.328;7.610;2023-01-10T15:56:51;100163.66;;;6.70;65.22
77545;BME280;66672;50.328;7.610;2023-01-10T15:59:24;100162.69;;;6.83;64.83
77545;BME280;66672;50.328;7.610;2023-01-10T16:01:59;100154.78;;;6.56;65.93
77545;BME280;66672;50.328;7.610;2023-01-10T16:04:27;100154.59;;;6.59;65.49
77545;BME280;66672;50.328;7.610;2023-01-10T16:07:14;100155.94;;;6.52;65.96
77545;BME280;66672;50.328;7.610;2023-01-10T16:09:41;100147.59;;;6.71;65.67
77545;BME280;66672;50.328;7.610;2023-01-10T16:12:25;100147.88;;;6.54;66.00
77545;BME280;66672;50.328;7.610;2023-01-10T16:15:15;100149.69;;;6.53;65.85
77545;BME280;66672;50.328;7.610;2023-01-10T16:17:43;100140.78;;;6.67;65.79
77545;BME280;66672;50.328;7.610;2023-01-10T16:20:17;100144.50;;;6.64;65.75
77545;BME280;66672;50.328;7.610;2023-01-10T16:22:44;100145.66;;;6.60;65.95
77545;BME280;66672;50.328;7.610;2023-01-10T16:25:15;100152.78;;;6.60;65.78
77545;BME280;66672;50.328;7.610;2023-01-10T16:27:41;100132.28;;;6.62;65.62
77545;BME280;66672;50.328;7.610;2023-01-10T16:30:30;100129.00;;;6.71;65.05
77545;BME280;66672;50.328;7.610;2023-01-10T16:32:59;100134.63;;;6.79;65.90
77545;BME280;66672;50.328;7.610;2023-01-10T16:35:27;100129.84;;;6.59;66.76
77545;BME280;66672;50.328;7.610;2023-01-10T16:37:56;100125.25;;;6.61;67.20
77545;BME280;66672;50.328;7.610;2023-01-10T16:40:27;100118.41;;;6.44;68.24